createdAt,value
2018-12-14T00:00:32.430Z,30.57
2018-12-14T00:03:00.030Z,25.27
2018-12-14T00:05:27.556Z,34.40
2018-12-14T00:07:55.255Z,28.60
2018-12-14T00:10:22.780Z,31.70
2018-12-14T00:12:50.319Z,29.47
2018-12-14T00:15:17.973Z,27.23
2018-12-14T00:17:45.748Z,28.03
2018-12-14T00:20:13.271Z,34.97
2018-12-14T00:22:41.052Z,32.43
2018-12-14T00:25:08.719Z,27.93
2018-12-14T00:27:36.235Z,28.47
2018-12-14T00:30:04.537Z,27.33
2018-12-14T00:32:32.278Z,27.00
2018-12-14T00:34:59.804Z,25.73
2018-12-14T00:37:27.368Z,24.33
2018-12-14T00:39:54.892Z,20.40
2018-12-14T00:42:22.862Z,27.70
2018-12-14T00:44:50.376Z,28.07
2018-12-14T00:47:17.918Z,32.33
2018-12-14T00:49:45.445Z,28.37
2018-12-14T00:52:12.974Z,30.53
2018-12-14T00:54:40.517Z,26.30
2018-12-14T00:57:08.095Z,23.47
2018-12-14T00:59:35.624Z,24.60
2018-12-14T01:02:05.505Z,21.37
2018-12-14T01:04:33.039Z,32.97
2018-12-14T01:07:00.577Z,21.13
2018-12-14T01:09:28.099Z,30.20
2018-12-14T01:11:58.375Z,26.30
2018-12-14T01:14:25.196Z,29.70
2018-12-14T01:16:52.731Z,28.57
2018-12-14T01:21:54.517Z,26.50
2018-12-14T01:24:22.324Z,23.60
2018-12-14T01:26:50.330Z,23.87
2018-12-14T01:29:17.862Z,24.13
2018-12-14T01:31:45.395Z,26.67
2018-12-14T01:34:12.942Z,20.73
2018-12-14T01:36:40.486Z,19.73
2018-12-14T01:39:08.000Z,25.33
2018-12-14T01:41:35.528Z,26.53
2018-12-14T01:44:03.307Z,22.27
2018-12-14T01:46:30.844Z,23.37
2018-12-14T01:48:58.389Z,22.07
2018-12-14T01:51:25.949Z,21.80
2018-12-14T01:53:53.482Z,25.87
2018-12-14T01:56:21.016Z,22.83
2018-12-14T01:58:48.562Z,28.90
2018-12-14T02:01:16.361Z,24.67
2018-12-14T02:03:44.004Z,23.57
2018-12-14T02:06:11.617Z,27.70
2018-12-14T02:08:39.145Z,27.03
2018-12-14T02:11:06.675Z,27.47
2018-12-14T02:13:34.230Z,27.80
2018-12-14T02:16:01.778Z,24.00
2018-12-14T02:18:29.592Z,22.30
2018-12-14T02:20:57.136Z,29.07
2018-12-14T02:23:24.678Z,26.07
2018-12-14T02:25:52.290Z,21.73
2018-12-14T02:28:20.106Z,23.80
2018-12-14T02:30:47.698Z,26.50
2018-12-14T02:33:15.238Z,20.87
2018-12-14T02:35:43.088Z,26.60
2018-12-14T02:38:10.595Z,27.80
2018-12-14T02:40:38.125Z,27.10
2018-12-14T02:43:05.712Z,23.77
2018-12-14T02:45:33.237Z,22.37
2018-12-14T02:48:00.770Z,27.07
2018-12-14T02:50:28.348Z,23.77
2018-12-14T02:52:55.928Z,24.37
2018-12-14T02:55:23.457Z,18.27
2018-12-14T02:57:51.043Z,22.80
2018-12-14T03:00:18.596Z,30.97
2018-12-14T03:02:46.205Z,34.17
2018-12-14T03:05:13.725Z,29.47
2018-12-14T03:07:41.257Z,25.73
2018-12-14T03:10:08.954Z,35.50
2018-12-14T03:12:36.841Z,36.20
2018-12-14T03:15:05.285Z,42.17
2018-12-14T03:17:32.947Z,33.27
2018-12-14T03:20:00.491Z,40.03
2018-12-14T03:22:28.378Z,40.97
2018-12-14T03:24:55.901Z,45.47
2018-12-14T03:27:23.491Z,41.23
2018-12-14T03:29:51.019Z,45.23
2018-12-14T03:32:18.592Z,36.63
2018-12-14T03:34:46.166Z,39.40
2018-12-14T03:37:13.721Z,42.03
2018-12-14T03:39:41.991Z,43.80
2018-12-14T03:42:09.833Z,41.30
2018-12-14T03:44:37.479Z,38.87
2018-12-14T03:47:05.131Z,40.23
2018-12-14T03:49:32.661Z,34.67
2018-12-14T03:52:00.203Z,35.03
2018-12-14T03:54:27.733Z,43.67
2018-12-14T03:56:55.333Z,41.83
2018-12-14T03:59:23.092Z,29.33
2018-12-14T04:01:50.611Z,25.57
2018-12-14T04:04:18.154Z,24.73
2018-12-14T04:06:45.733Z,23.00
2018-12-14T04:09:13.857Z,25.40
2018-12-14T04:11:41.436Z,23.27
2018-12-14T04:14:08.974Z,24.60
2018-12-14T04:16:36.674Z,25.23
2018-12-14T04:19:04.276Z,26.43
2018-12-14T04:21:31.857Z,31.90
2018-12-14T04:23:59.620Z,36.00
2018-12-14T04:26:27.217Z,37.73
2018-12-14T04:28:54.830Z,26.80
2018-12-14T04:31:22.439Z,26.97
2018-12-14T04:33:49.961Z,38.53
2018-12-14T04:36:17.507Z,30.93
2018-12-14T04:38:45.039Z,41.77
2018-12-14T04:41:12.582Z,38.20
2018-12-14T04:43:40.110Z,34.80
2018-12-14T04:46:08.053Z,36.87
2018-12-14T04:48:35.623Z,35.50
2018-12-14T04:51:03.247Z,36.53
2018-12-14T04:53:30.799Z,41.63
2018-12-14T04:55:58.372Z,36.60
2018-12-14T04:58:25.915Z,34.93
2018-12-14T05:00:53.453Z,28.60
2018-12-14T05:03:20.997Z,24.27
2018-12-14T05:05:48.588Z,25.37
2018-12-14T05:08:16.176Z,26.77
2018-12-14T05:10:43.977Z,22.37
2018-12-14T05:13:11.529Z,27.83
2018-12-14T05:15:39.058Z,30.90
2018-12-14T05:18:06.589Z,26.33
2018-12-14T05:20:34.167Z,22.60
2018-12-14T05:23:01.705Z,23.27
2018-12-14T05:25:29.231Z,22.97
2018-12-14T05:27:56.766Z,24.57
2018-12-14T05:30:24.407Z,22.53
2018-12-14T05:32:51.948Z,27.77
2018-12-14T05:35:19.948Z,31.50
2018-12-14T05:37:47.506Z,31.63
2018-12-14T05:40:15.063Z,23.37
2018-12-14T05:42:42.926Z,22.80
2018-12-14T05:45:10.476Z,24.67
2018-12-14T05:47:38.182Z,23.63
2018-12-14T05:50:05.987Z,23.30
2018-12-14T05:52:33.545Z,23.43
2018-12-14T05:55:01.389Z,25.70
2018-12-14T05:57:28.973Z,24.73
2018-12-14T05:59:56.551Z,26.67
2018-12-14T06:02:24.181Z,27.30
2018-12-14T06:04:51.757Z,24.17
2018-12-14T06:09:53.451Z,24.03
2018-12-14T06:12:21.377Z,26.27
2018-12-14T06:14:48.904Z,28.40
2018-12-14T06:17:16.508Z,27.73
2018-12-14T06:19:44.094Z,23.37
2018-12-14T06:22:11.627Z,25.33
2018-12-14T06:24:39.538Z,22.33
2018-12-14T06:27:07.130Z,24.63
2018-12-14T06:29:34.640Z,29.90
2018-12-14T06:32:02.868Z,23.07
2018-12-14T06:34:30.446Z,24.67
2018-12-14T06:36:58.284Z,27.77
2018-12-14T06:39:25.938Z,21.10
2018-12-14T06:41:53.463Z,30.90
2018-12-14T06:44:21.005Z,41.27
2018-12-14T06:46:48.526Z,36.83
2018-12-14T06:49:16.053Z,27.60
2018-12-14T06:51:43.594Z,31.47
2018-12-14T06:54:11.123Z,37.30
2018-12-14T06:56:38.653Z,41.53
2018-12-14T06:59:06.180Z,37.10
2018-12-14T07:01:33.723Z,38.20
2018-12-14T07:04:01.259Z,44.90
2018-12-14T07:06:29.541Z,37.97
2018-12-14T07:08:57.116Z,21.70
2018-12-14T07:11:24.785Z,26.03
2018-12-14T07:13:52.376Z,16.47
2018-12-14T07:16:21.154Z,32.60
2018-12-14T07:18:48.696Z,53.30
2018-12-14T07:21:16.516Z,31.13
2018-12-14T07:23:44.057Z,43.97
2018-12-14T07:26:11.597Z,38.60
2018-12-14T07:28:39.118Z,33.87
2018-12-14T07:31:06.671Z,35.00
2018-12-14T07:33:34.231Z,23.67
2018-12-14T07:36:01.782Z,36.20
2018-12-14T07:38:29.309Z,19.53
2018-12-14T07:40:56.839Z,26.00
2018-12-14T07:43:28.308Z,23.37
2018-12-14T07:45:53.962Z,19.23
2018-12-14T07:48:21.517Z,22.33
2018-12-14T07:50:49.044Z,22.50
2018-12-14T07:53:16.591Z,20.63
2018-12-14T07:55:44.115Z,23.93
2018-12-14T07:58:11.646Z,17.37
2018-12-14T08:00:39.194Z,19.33
2018-12-14T08:03:06.741Z,31.07
2018-12-14T08:05:34.393Z,25.53
2018-12-14T08:08:02.058Z,25.43
2018-12-14T08:10:29.593Z,21.30
2018-12-14T08:12:57.607Z,21.43
2018-12-14T08:15:25.627Z,20.07
2018-12-14T08:17:53.161Z,16.00
2018-12-14T08:20:20.935Z,20.37
2018-12-14T08:22:48.468Z,22.20
2018-12-14T08:25:15.982Z,25.13
2018-12-14T08:27:43.520Z,16.47
2018-12-14T08:30:11.034Z,14.87
2018-12-14T08:32:38.576Z,18.40
2018-12-14T08:35:07.322Z,17.27
2018-12-14T08:37:34.842Z,21.93
2018-12-14T08:40:02.401Z,15.40
2018-12-14T08:42:29.936Z,14.83
2018-12-14T08:44:57.477Z,14.27
2018-12-14T08:47:26.162Z,17.20
2018-12-14T08:49:53.976Z,19.83
2018-12-14T08:52:21.502Z,17.87
2018-12-14T08:54:49.022Z,17.50
2018-12-14T08:57:16.553Z,25.03
2018-12-14T08:59:44.075Z,14.03
2018-12-14T09:02:11.610Z,18.23
2018-12-14T09:04:39.138Z,15.43
2018-12-14T09:07:06.684Z,19.87
2018-12-14T09:09:34.225Z,21.10
2018-12-14T09:12:01.761Z,21.33
2018-12-14T09:14:29.303Z,16.80
2018-12-14T09:16:56.860Z,17.67
2018-12-14T09:19:24.481Z,19.63
2018-12-14T09:21:52.165Z,16.20
2018-12-14T09:24:19.717Z,23.80
2018-12-14T09:26:47.276Z,18.23
2018-12-14T09:29:15.015Z,16.37
2018-12-14T09:31:42.745Z,20.50
2018-12-14T09:34:10.355Z,19.53
2018-12-14T09:36:37.924Z,19.10
2018-12-14T09:39:05.931Z,20.87
2018-12-14T09:41:33.481Z,20.23
2018-12-14T09:44:01.068Z,18.93
2018-12-14T09:46:28.631Z,16.50
2018-12-14T09:48:56.222Z,13.30
2018-12-14T09:51:24.471Z,16.90
2018-12-14T09:53:52.028Z,18.90
2018-12-14T09:56:19.600Z,18.90
2018-12-14T09:58:47.196Z,18.03
2018-12-14T10:01:14.755Z,21.63
2018-12-14T10:03:42.466Z,19.43
2018-12-14T10:06:15.501Z,19.83
2018-12-14T10:08:39.594Z,18.87
2018-12-14T10:11:08.731Z,23.10
2018-12-14T10:13:37.052Z,22.73
2018-12-14T10:16:04.663Z,28.37
2018-12-14T10:18:32.485Z,19.00
2018-12-14T10:21:00.021Z,39.40
2018-12-14T10:23:27.551Z,24.87
2018-12-14T10:25:55.166Z,26.70
2018-12-14T10:28:22.736Z,23.30
2018-12-14T10:30:50.455Z,27.30
2018-12-14T10:33:17.993Z,27.40
2018-12-14T10:35:45.538Z,23.00
2018-12-14T10:38:13.099Z,23.97
2018-12-14T10:40:40.977Z,28.10
2018-12-14T10:43:08.519Z,28.63
2018-12-14T10:45:36.224Z,20.93
2018-12-14T10:48:03.924Z,21.67
2018-12-14T10:50:38.666Z,26.30
2018-12-14T10:53:04.611Z,28.30
2018-12-14T10:55:32.485Z,27.70
2018-12-14T10:58:00.022Z,21.90
2018-12-14T11:00:33.283Z,23.33
2018-12-14T11:03:00.833Z,29.10
2018-12-14T11:05:28.436Z,21.53
2018-12-14T11:07:56.864Z,30.43
2018-12-14T11:10:24.748Z,27.80
2018-12-14T11:12:52.299Z,27.43
2018-12-14T11:15:20.093Z,33.67
2018-12-14T11:17:47.904Z,29.07
2018-12-14T11:20:15.420Z,26.60
2018-12-14T11:22:43.036Z,25.93
2018-12-14T11:25:10.574Z,23.90
2018-12-14T11:27:39.363Z,26.50
2018-12-14T11:30:08.528Z,30.43
2018-12-14T11:32:36.080Z,27.33
2018-12-14T11:35:04.234Z,35.80
2018-12-14T11:37:31.770Z,29.03
2018-12-14T11:39:59.305Z,22.40
2018-12-14T11:42:27.137Z,27.13
2018-12-14T11:44:54.670Z,24.47
2018-12-14T11:47:22.229Z,24.63
2018-12-14T11:49:49.785Z,21.43
2018-12-14T11:52:17.326Z,24.60
2018-12-14T11:54:46.498Z,26.90
2018-12-14T11:57:14.029Z,25.73
2018-12-14T11:59:41.645Z,24.67
2018-12-14T12:02:09.180Z,24.17
2018-12-14T12:04:36.701Z,24.83
2018-12-14T12:07:05.097Z,23.30
2018-12-14T12:09:33.444Z,24.53
2018-12-14T12:12:01.155Z,28.80
2018-12-14T12:14:28.690Z,22.37
2018-12-14T12:16:56.235Z,23.97
2018-12-14T12:19:23.746Z,19.03
2018-12-14T12:21:51.270Z,27.67
2018-12-14T12:24:18.777Z,25.63
2018-12-14T12:26:46.321Z,26.40
2018-12-14T12:29:13.964Z,25.43
2018-12-14T12:31:41.558Z,20.00
2018-12-14T12:34:09.181Z,29.47
2018-12-14T12:36:36.946Z,23.80
2018-12-14T12:39:05.920Z,26.40
2018-12-14T12:41:33.829Z,25.03
2018-12-14T12:44:01.459Z,33.47
2018-12-14T12:46:28.972Z,25.20
2018-12-14T12:49:00.679Z,31.47
2018-12-14T12:51:28.842Z,22.27
2018-12-14T12:53:56.890Z,26.70
2018-12-14T12:56:24.704Z,25.13
2018-12-14T12:58:52.501Z,19.93
2018-12-14T13:01:20.043Z,19.50
2018-12-14T13:03:47.566Z,25.60
2018-12-14T13:08:49.739Z,29.63
2018-12-14T13:11:19.103Z,19.07
2018-12-14T13:13:46.771Z,23.60
2018-12-14T13:16:14.313Z,25.47
2018-12-14T13:18:45.992Z,21.90
2018-12-14T13:21:14.998Z,25.07
2018-12-14T13:23:42.551Z,25.07
2018-12-14T13:26:10.072Z,20.20
2018-12-14T13:28:37.716Z,25.87
2018-12-14T13:31:05.235Z,25.00
2018-12-14T13:33:32.870Z,27.80
2018-12-14T13:36:00.556Z,22.13
2018-12-14T13:38:28.100Z,22.63
2018-12-14T13:41:04.725Z,19.90
2018-12-14T13:43:33.762Z,25.60
2018-12-14T13:46:01.303Z,23.70
2018-12-14T13:48:28.843Z,23.70
2018-12-14T13:50:56.390Z,22.97
2018-12-14T13:53:23.967Z,25.53
2018-12-14T13:55:51.715Z,18.03
2018-12-14T13:58:19.236Z,22.47
2018-12-14T14:00:47.044Z,16.23
2018-12-14T14:03:14.574Z,17.93
2018-12-14T14:05:42.128Z,18.50
2018-12-14T14:08:09.661Z,20.57
2018-12-14T14:10:37.256Z,29.13
2018-12-14T14:13:04.824Z,29.10
2018-12-14T14:15:32.384Z,22.90
2018-12-14T14:17:59.920Z,24.73
2018-12-14T14:20:27.464Z,17.83
2018-12-14T14:22:55.040Z,30.90
2018-12-14T14:25:22.618Z,20.17
2018-12-14T14:27:50.184Z,33.90
2018-12-14T14:30:17.749Z,23.13
2018-12-14T14:32:45.289Z,20.23
2018-12-14T14:35:12.825Z,20.97
2018-12-14T14:37:40.357Z,22.07
2018-12-14T14:40:08.015Z,18.60
2018-12-14T14:42:35.826Z,17.50
2018-12-14T14:45:03.546Z,20.50
2018-12-14T14:47:31.173Z,20.80
2018-12-14T14:49:58.757Z,22.97
2018-12-14T14:52:26.295Z,21.17
2018-12-14T14:54:53.858Z,16.70
2018-12-14T14:57:21.403Z,19.57
2018-12-14T14:59:49.005Z,24.47
2018-12-14T15:02:16.572Z,16.93
2018-12-14T15:04:45.210Z,20.70
2018-12-14T15:07:12.766Z,19.53
2018-12-14T15:09:40.369Z,21.20
2018-12-14T15:12:07.924Z,17.43
2018-12-14T15:14:35.483Z,20.53
2018-12-14T15:17:03.031Z,19.23
2018-12-14T15:19:30.589Z,22.47
2018-12-14T15:22:04.356Z,25.60
2018-12-14T15:24:27.777Z,20.33
2018-12-14T15:26:55.330Z,21.03
2018-12-14T15:29:22.896Z,22.90
2018-12-14T15:31:50.648Z,16.23
2018-12-14T15:34:18.216Z,21.77
2018-12-14T15:36:45.913Z,30.57
2018-12-14T15:39:13.481Z,24.23
2018-12-14T15:41:41.048Z,46.47
2018-12-14T15:44:08.619Z,25.13
2018-12-14T15:46:36.166Z,22.73
2018-12-14T15:49:03.870Z,23.00
2018-12-14T15:51:31.404Z,27.83
2018-12-14T15:53:58.958Z,30.47
2018-12-14T15:56:26.532Z,27.20
2018-12-14T15:58:54.099Z,25.27
2018-12-14T16:01:21.649Z,24.77
2018-12-14T16:03:49.183Z,25.83
2018-12-14T16:06:16.722Z,34.53
2018-12-14T16:08:44.261Z,27.60
2018-12-14T16:11:11.818Z,26.03
2018-12-14T16:13:39.398Z,30.13
2018-12-14T16:16:07.122Z,28.67
2018-12-14T16:18:34.702Z,21.50
2018-12-14T16:21:02.289Z,19.48
2018-12-14T16:23:29.936Z,24.23
2018-12-14T16:25:57.541Z,20.55
2018-12-14T16:28:25.179Z,23.87
2018-12-14T16:30:52.737Z,21.20
2018-12-14T16:33:20.318Z,22.33
2018-12-14T16:35:47.868Z,20.65
2018-12-14T16:38:15.724Z,26.60
2018-12-14T16:40:43.281Z,19.00
2018-12-14T16:43:10.926Z,28.37
2018-12-14T16:45:38.482Z,27.53
2018-12-14T16:48:06.074Z,23.53
2018-12-14T16:50:33.659Z,43.60
2018-12-14T16:53:01.291Z,24.00
2018-12-14T16:55:28.820Z,26.00
2018-12-14T16:57:57.117Z,28.13
2018-12-14T17:00:24.671Z,24.27
2018-12-14T17:02:52.326Z,23.73
2018-12-14T17:05:20.180Z,27.80
2018-12-14T17:07:47.905Z,29.40
2018-12-14T17:10:15.437Z,27.80
2018-12-14T17:12:43.239Z,26.60
2018-12-14T17:15:10.829Z,27.40
2018-12-14T17:17:38.453Z,29.03
2018-12-14T17:20:07.060Z,27.87
2018-12-14T17:22:34.651Z,29.90
2018-12-14T17:25:02.230Z,29.93
2018-12-14T17:27:29.780Z,24.80
2018-12-14T17:29:57.403Z,28.17
2018-12-14T17:32:24.927Z,23.00
2018-12-14T17:34:52.579Z,22.10
2018-12-14T17:37:20.255Z,38.65
2018-12-14T17:39:47.844Z,35.40
2018-12-14T17:42:15.610Z,30.50
2018-12-14T17:44:43.252Z,28.60
2018-12-14T17:47:12.186Z,30.63
2018-12-14T17:49:40.508Z,30.43
2018-12-14T17:52:08.744Z,35.67
2018-12-14T17:54:36.355Z,29.33
2018-12-14T17:57:03.997Z,36.03
2018-12-14T17:59:31.555Z,44.03
2018-12-14T18:01:59.137Z,52.87
2018-12-14T18:04:26.813Z,29.43
2018-12-14T18:06:54.354Z,24.70
2018-12-14T18:09:21.988Z,28.90
2018-12-14T18:11:49.675Z,27.77
2018-12-14T18:14:17.305Z,29.40
2018-12-14T18:16:45.126Z,27.87
2018-12-14T18:19:12.959Z,28.20
2018-12-14T18:21:40.513Z,30.03
2018-12-14T18:24:08.132Z,33.20
2018-12-14T18:26:35.726Z,31.27
2018-12-14T18:29:03.400Z,40.20
2018-12-14T18:31:30.968Z,36.57
2018-12-14T18:33:58.616Z,28.40
2018-12-14T18:36:26.159Z,29.40
2018-12-14T18:38:53.723Z,27.13
2018-12-14T18:41:21.294Z,41.83
2018-12-14T18:43:49.309Z,31.00
2018-12-14T18:46:16.900Z,29.67
2018-12-14T18:48:45.546Z,29.70
2018-12-14T18:51:13.363Z,28.70
2018-12-14T18:53:42.899Z,33.47
2018-12-14T18:56:11.272Z,33.53
2018-12-14T18:58:38.852Z,32.37
2018-12-14T19:01:06.491Z,36.07
2018-12-14T19:03:34.129Z,33.40
2018-12-14T19:06:01.769Z,39.30
2018-12-14T19:08:29.471Z,28.63
2018-12-14T19:10:57.031Z,33.33
2018-12-14T19:13:24.604Z,31.20
2018-12-14T19:15:52.253Z,37.87
2018-12-14T19:18:19.825Z,43.17
2018-12-14T19:20:47.407Z,125.40
2018-12-14T19:23:19.582Z,115.17
2018-12-14T19:25:44.674Z,40.65
2018-12-14T19:28:12.642Z,34.30
2018-12-14T19:30:40.261Z,34.83
2018-12-14T19:33:07.835Z,48.40
2018-12-14T19:35:35.451Z,32.37
2018-12-14T19:38:04.041Z,37.83
2018-12-14T19:40:31.624Z,35.17
2018-12-14T19:43:00.410Z,27.97
2018-12-14T19:45:28.060Z,36.00
2018-12-14T19:47:55.664Z,30.80
2018-12-14T19:50:23.221Z,29.33
2018-12-14T19:52:51.575Z,37.73
2018-12-14T19:55:19.129Z,57.07
2018-12-14T19:57:46.685Z,48.00
2018-12-14T20:00:14.276Z,31.93
2018-12-14T20:02:41.930Z,35.10
2018-12-14T20:05:09.510Z,36.53
2018-12-14T20:07:37.090Z,34.45
2018-12-14T20:10:07.012Z,34.73
2018-12-14T20:12:34.749Z,42.50
2018-12-14T20:15:02.294Z,45.03
2018-12-14T20:17:30.661Z,42.25
2018-12-14T20:19:58.215Z,37.43
2018-12-14T20:22:28.979Z,36.00
2018-12-14T20:24:56.626Z,36.07
2018-12-14T20:27:24.281Z,34.90
2018-12-14T20:29:51.887Z,34.45
2018-12-14T20:32:19.895Z,44.30
2018-12-14T20:34:51.628Z,32.47
2018-12-14T20:40:05.492Z,31.90
2018-12-14T20:42:33.367Z,29.77
2018-12-14T20:45:01.271Z,25.33
2018-12-14T20:47:29.227Z,28.92
2018-12-14T20:49:56.837Z,35.40
2018-12-14T20:52:24.758Z,34.18
2018-12-14T20:54:52.346Z,30.83
2018-12-14T20:57:19.976Z,33.93
2018-12-14T20:59:47.705Z,30.00
2018-12-14T21:02:15.454Z,31.40
2018-12-14T21:04:43.018Z,33.67
2018-12-14T21:07:10.843Z,32.23
2018-12-14T21:09:38.403Z,29.70
2018-12-14T21:12:05.972Z,35.27
2018-12-14T21:14:33.789Z,29.70
2018-12-14T21:17:01.346Z,32.37
2018-12-14T21:19:29.424Z,32.60
2018-12-14T21:21:56.978Z,34.70
2018-12-14T21:24:25.180Z,39.43
2018-12-14T21:26:52.862Z,29.80
2018-12-14T21:29:21.307Z,34.10
2018-12-14T21:31:48.851Z,32.43
2018-12-14T21:34:16.995Z,27.00
2018-12-14T21:36:44.696Z,33.63
2018-12-14T21:39:12.257Z,36.00
2018-12-14T21:41:39.910Z,26.97
2018-12-14T21:44:07.853Z,34.60
2018-12-14T21:46:35.419Z,35.30
2018-12-14T21:49:02.976Z,32.20
2018-12-14T21:51:30.526Z,31.80
2018-12-14T21:53:59.405Z,31.40
2018-12-14T21:56:26.969Z,33.83
2018-12-14T21:58:54.506Z,29.90
2018-12-14T22:01:22.063Z,36.10
2018-12-14T22:03:49.610Z,34.27
2018-12-14T22:06:17.173Z,37.63
2018-12-14T22:08:44.720Z,30.87
2018-12-14T22:11:12.321Z,31.00
2018-12-14T22:13:39.968Z,34.30
2018-12-14T22:16:07.531Z,30.03
2018-12-14T22:18:35.068Z,31.10
2018-12-14T22:21:02.618Z,36.80
2018-12-14T22:23:30.268Z,31.17
2018-12-14T22:25:57.860Z,32.30
2018-12-14T22:28:25.416Z,33.27
2018-12-14T22:30:53.258Z,30.60
2018-12-14T22:33:20.789Z,29.53
2018-12-14T22:35:48.341Z,31.73
2018-12-14T22:38:16.722Z,36.33
2018-12-14T22:40:44.260Z,36.00
2018-12-14T22:43:11.801Z,32.93
2018-12-14T22:45:39.348Z,30.50
2018-12-14T22:48:07.221Z,31.37
2018-12-14T22:50:34.772Z,31.40
2018-12-14T22:53:02.317Z,34.13
2018-12-14T22:55:29.862Z,34.43
2018-12-14T22:57:57.734Z,32.63
2018-12-14T23:00:25.945Z,33.60
2018-12-14T23:02:53.481Z,39.90
2018-12-14T23:05:21.497Z,36.38
2018-12-14T23:07:49.123Z,34.13
2018-12-14T23:10:16.667Z,33.20
2018-12-14T23:12:44.206Z,34.87
2018-12-14T23:15:11.744Z,30.60
2018-12-14T23:17:39.280Z,33.37
2018-12-14T23:20:07.256Z,40.60
2018-12-14T23:22:34.879Z,37.13
2018-12-14T23:25:02.518Z,39.40
2018-12-14T23:27:30.053Z,34.60
2018-12-14T23:29:57.587Z,38.07
2018-12-14T23:32:25.173Z,35.17
2018-12-14T23:34:52.711Z,36.13
2018-12-14T23:37:20.315Z,33.83
2018-12-14T23:39:47.899Z,35.50
2018-12-14T23:42:15.464Z,47.17
2018-12-14T23:44:42.993Z,37.83
2018-12-14T23:47:10.766Z,41.80
2018-12-14T23:49:38.325Z,35.93
2018-12-14T23:52:05.858Z,35.37
2018-12-14T23:54:33.391Z,37.80
2018-12-14T23:57:01.061Z,34.27
2018-12-14T23:59:28.597Z,41.37
